createdAt,value
2022-07-25T00:00:10.980Z,63.06
2022-07-25T00:02:58.885Z,63.00
2022-07-25T00:05:27.118Z,63.25
2022-07-25T00:07:55.163Z,63.08
2022-07-25T00:10:23.845Z,62.97
2022-07-25T00:12:51.941Z,63.12
2022-07-25T00:15:19.992Z,63.23
2022-07-25T00:17:47.977Z,63.20
2022-07-25T00:20:15.975Z,62.84
2022-07-25T00:22:44.121Z,62.63
2022-07-25T00:25:12.334Z,63.24
2022-07-25T00:27:40.318Z,63.22
2022-07-25T00:30:09.144Z,63.29
2022-07-25T00:32:37.149Z,63.78
2022-07-25T00:35:06.032Z,63.85
2022-07-25T00:37:34.310Z,63.94
2022-07-25T00:40:02.479Z,64.19
2022-07-25T00:42:30.675Z,64.27
2022-07-25T00:45:00.192Z,64.30
2022-07-25T00:47:28.400Z,64.31
2022-07-25T00:49:56.379Z,64.41
2022-07-25T00:52:24.930Z,64.73
2022-07-25T00:54:52.976Z,64.68
2022-07-25T00:57:20.921Z,64.86
2022-07-25T00:59:49.336Z,64.90
2022-07-25T01:02:17.523Z,64.76
2022-07-25T01:04:45.662Z,64.65
2022-07-25T01:07:14.809Z,64.72
2022-07-25T01:09:43.245Z,64.70
2022-07-25T01:12:11.276Z,65.19
2022-07-25T01:14:39.527Z,65.25
2022-07-25T01:17:07.595Z,65.80
2022-07-25T01:19:35.740Z,65.63
2022-07-25T01:22:03.858Z,65.97
2022-07-25T01:24:34.012Z,65.76
2022-07-25T01:27:03.010Z,66.08
2022-07-25T01:29:31.126Z,65.81
2022-07-25T01:31:59.085Z,65.75
2022-07-25T01:34:27.115Z,66.11
2022-07-25T01:36:55.130Z,67.16
2022-07-25T01:39:23.228Z,66.82
2022-07-25T01:41:51.297Z,66.70
2022-07-25T01:44:19.416Z,67.36
2022-07-25T01:46:47.508Z,67.33
2022-07-25T01:49:15.727Z,67.28
2022-07-25T01:51:43.825Z,67.51
2022-07-25T01:54:11.858Z,67.52
2022-07-25T01:56:46.884Z,67.80
2022-07-25T01:59:15.863Z,67.57
2022-07-25T02:01:44.394Z,67.61
2022-07-25T02:04:12.501Z,67.68
2022-07-25T02:06:41.614Z,68.28
2022-07-25T02:09:10.125Z,69.17
2022-07-25T02:11:38.176Z,69.02
2022-07-25T02:14:06.740Z,68.94
2022-07-25T02:16:35.262Z,68.86
2022-07-25T02:19:04.136Z,69.29
2022-07-25T02:21:32.295Z,69.60
2022-07-25T02:24:00.343Z,69.30
2022-07-25T02:26:28.329Z,68.86
2022-07-25T02:28:56.399Z,69.60
2022-07-25T02:31:24.481Z,70.05
2022-07-25T02:33:52.463Z,70.13
2022-07-25T02:36:20.437Z,70.04
2022-07-25T02:38:48.720Z,69.95
2022-07-25T02:41:17.001Z,69.83
2022-07-25T02:43:45.041Z,69.84
2022-07-25T02:46:13.204Z,70.05
2022-07-25T02:48:41.261Z,69.75
2022-07-25T02:51:09.324Z,70.11
2022-07-25T02:53:56.775Z,69.81
2022-07-25T02:56:30.144Z,70.19
2022-07-25T02:59:00.667Z,70.92
2022-07-25T03:01:28.851Z,70.87
2022-07-25T03:03:57.087Z,70.94
2022-07-25T03:06:25.662Z,71.01
2022-07-25T03:08:53.640Z,70.87
2022-07-25T03:11:22.480Z,70.61
2022-07-25T03:13:50.412Z,70.63
2022-07-25T03:16:18.494Z,71.25
2022-07-25T03:18:47.039Z,71.04
2022-07-25T03:21:15.221Z,71.09
2022-07-25T03:23:43.303Z,70.83
2022-07-25T03:26:11.245Z,71.02
2022-07-25T03:28:39.262Z,71.62
2022-07-25T03:31:07.468Z,71.43
2022-07-25T03:33:35.545Z,71.11
2022-07-25T03:36:04.128Z,71.60
2022-07-25T03:38:32.207Z,72.11
2022-07-25T03:41:00.254Z,72.19
2022-07-25T03:43:28.589Z,71.83
2022-07-25T03:45:56.705Z,72.06
2022-07-25T03:48:24.828Z,71.59
2022-07-25T03:50:52.892Z,71.71
2022-07-25T03:53:20.916Z,71.68
2022-07-25T03:55:50.172Z,71.65
2022-07-25T03:58:18.213Z,71.46
2022-07-25T04:00:48.011Z,71.67
2022-07-25T04:03:16.609Z,71.87
2022-07-25T04:05:47.610Z,71.73
2022-07-25T04:08:15.990Z,71.99
2022-07-25T04:10:44.099Z,71.81
2022-07-25T04:13:12.079Z,71.65
2022-07-25T04:15:40.040Z,71.33
2022-07-25T04:18:08.687Z,71.11
2022-07-25T04:20:41.131Z,71.08
2022-07-25T04:23:09.180Z,70.98
2022-07-25T04:25:37.690Z,70.82
2022-07-25T04:28:05.825Z,70.63
2022-07-25T04:30:33.866Z,70.54
2022-07-25T04:33:01.904Z,70.32
2022-07-25T04:35:29.992Z,69.82
2022-07-25T04:37:57.996Z,69.07
2022-07-25T04:40:26.101Z,68.34
2022-07-25T04:42:54.602Z,67.15
2022-07-25T04:45:22.855Z,66.45
2022-07-25T04:47:50.964Z,65.45
2022-07-25T04:50:24.527Z,64.50
2022-07-25T04:52:53.189Z,63.29
2022-07-25T04:55:21.626Z,61.86
2022-07-25T04:57:49.648Z,61.67
2022-07-25T05:00:18.135Z,60.96
2022-07-25T05:02:46.173Z,59.28
2022-07-25T05:05:18.396Z,57.92
2022-07-25T05:07:50.748Z,57.21
2022-07-25T05:10:19.217Z,57.36
2022-07-25T05:12:47.473Z,56.38
2022-07-25T05:15:16.127Z,55.69
2022-07-25T05:17:44.225Z,54.92
2022-07-25T05:20:13.755Z,54.01
2022-07-25T05:22:42.575Z,53.24
2022-07-25T05:25:11.654Z,53.06
2022-07-25T05:27:40.661Z,53.61
2022-07-25T05:30:11.028Z,52.69
2022-07-25T05:32:39.864Z,51.05
2022-07-25T05:35:09.096Z,50.39
2022-07-25T05:37:38.122Z,50.56
2022-07-25T05:40:07.484Z,48.90
2022-07-25T05:42:36.075Z,48.92
2022-07-25T05:45:04.381Z,48.61
2022-07-25T05:47:32.376Z,48.20
2022-07-25T05:50:00.403Z,47.63
2022-07-25T05:52:28.487Z,46.68
2022-07-25T05:54:56.491Z,46.20
2022-07-25T05:57:24.581Z,45.30
2022-07-25T05:59:52.692Z,45.33
2022-07-25T06:02:20.908Z,44.79
2022-07-25T06:04:49.088Z,44.34
2022-07-25T06:07:17.367Z,44.12
2022-07-25T06:09:45.699Z,43.95
2022-07-25T06:12:14.276Z,43.51
2022-07-25T06:14:42.439Z,43.12
2022-07-25T06:17:11.224Z,42.95
2022-07-25T06:19:39.282Z,42.24
2022-07-25T06:22:09.452Z,42.08
2022-07-25T06:24:38.480Z,41.40
2022-07-25T06:27:08.514Z,40.58
2022-07-25T06:29:37.869Z,40.35
2022-07-25T06:32:06.279Z,40.24
2022-07-25T06:34:34.361Z,39.84
2022-07-25T06:37:02.472Z,39.79
2022-07-25T06:39:30.746Z,38.77
2022-07-25T06:41:59.845Z,38.64
2022-07-25T06:44:34.078Z,37.89
2022-07-25T06:47:03.625Z,37.21
2022-07-25T06:49:31.912Z,37.18
2022-07-25T06:51:59.895Z,36.70
2022-07-25T06:54:27.933Z,36.66
2022-07-25T06:56:55.930Z,36.21
2022-07-25T06:59:24.028Z,35.79
2022-07-25T07:01:52.207Z,35.32
2022-07-25T07:04:20.415Z,35.07
2022-07-25T07:06:48.709Z,34.49
2022-07-25T07:09:16.726Z,34.59
2022-07-25T07:11:44.787Z,34.62
2022-07-25T07:14:12.817Z,34.32
2022-07-25T07:16:42.454Z,33.70
2022-07-25T07:19:14.707Z,33.76
2022-07-25T07:21:43.244Z,33.24
2022-07-25T07:24:23.825Z,33.38
2022-07-25T07:26:54.403Z,32.94
2022-07-25T07:29:22.527Z,32.64
2022-07-25T07:31:50.774Z,32.55
2022-07-25T07:34:19.130Z,32.13
2022-07-25T07:36:47.262Z,31.99
2022-07-25T07:39:16.654Z,32.09
2022-07-25T07:41:45.078Z,31.87
2022-07-25T07:44:13.235Z,31.93
2022-07-25T07:46:41.360Z,31.94
2022-07-25T07:49:10.105Z,31.26
2022-07-25T07:51:38.954Z,30.81
2022-07-25T07:54:25.584Z,30.72
2022-07-25T07:56:53.588Z,30.51
2022-07-25T07:59:22.150Z,30.04
2022-07-25T08:01:50.328Z,29.76
2022-07-25T08:04:18.472Z,28.81
2022-07-25T08:06:46.509Z,29.14
2022-07-25T08:09:14.615Z,28.82
2022-07-25T08:11:42.730Z,28.71
2022-07-25T08:14:11.005Z,28.46
2022-07-25T08:16:39.156Z,28.16
2022-07-25T08:19:07.331Z,27.58
2022-07-25T08:21:35.267Z,27.66
2022-07-25T08:24:03.860Z,27.13
2022-07-25T08:26:33.972Z,26.97
2022-07-25T08:29:18.022Z,27.16
2022-07-25T08:31:47.213Z,27.17
2022-07-25T08:34:15.395Z,27.17
2022-07-25T08:36:43.481Z,27.20
2022-07-25T08:39:11.667Z,27.40
2022-07-25T08:41:43.402Z,27.52
2022-07-25T08:44:14.847Z,27.22
2022-07-25T08:46:43.421Z,27.17
2022-07-25T08:49:11.967Z,27.08
2022-07-25T08:51:40.974Z,26.83
2022-07-25T08:54:09.775Z,26.55
2022-07-25T08:56:38.200Z,26.18
2022-07-25T08:59:06.456Z,26.14
2022-07-25T09:01:35.212Z,25.90
2022-07-25T09:04:04.630Z,25.60
2022-07-25T09:06:32.862Z,25.76
2022-07-25T09:09:05.207Z,25.59
2022-07-25T09:11:36.816Z,24.94
2022-07-25T09:14:10.329Z,24.48
2022-07-25T09:16:45.177Z,24.21
2022-07-25T09:19:21.617Z,23.85
2022-07-25T09:22:10.418Z,23.76
2022-07-25T09:24:45.555Z,23.93
2022-07-25T09:27:14.986Z,23.73
2022-07-25T09:29:44.652Z,23.42
2022-07-25T09:32:20.701Z,23.09
2022-07-25T09:34:50.400Z,22.55
2022-07-25T09:37:25.396Z,22.21
2022-07-25T09:39:53.547Z,22.13
2022-07-25T09:42:26.104Z,21.92
2022-07-25T09:44:58.056Z,21.79
2022-07-25T09:47:26.341Z,21.23
2022-07-25T09:49:55.153Z,21.08
2022-07-25T09:52:23.659Z,21.20
2022-07-25T09:54:51.704Z,20.79
2022-07-25T09:57:19.934Z,20.83
2022-07-25T09:59:47.992Z,20.34
2022-07-25T10:02:41.516Z,20.26
2022-07-25T10:05:19.877Z,20.15
2022-07-25T10:07:51.084Z,20.30
2022-07-25T10:10:32.274Z,19.76
2022-07-25T10:13:07.866Z,19.30
2022-07-25T10:15:51.707Z,19.18
2022-07-25T10:18:23.138Z,18.87
2022-07-25T10:20:54.082Z,18.73
2022-07-25T10:23:27.629Z,18.39
2022-07-25T10:26:03.317Z,17.91
2022-07-25T10:28:48.634Z,17.48
2022-07-25T10:31:24.893Z,17.57
2022-07-25T10:33:58.753Z,17.73
2022-07-25T10:36:42.266Z,17.85
2022-07-25T10:39:13.480Z,17.24
2022-07-25T10:41:44.401Z,16.58
2022-07-25T10:44:16.488Z,16.24
2022-07-25T10:46:45.253Z,15.92
2022-07-25T10:49:31.908Z,15.96
2022-07-25T10:52:04.694Z,15.50
2022-07-25T10:54:37.861Z,14.99
2022-07-25T10:57:13.999Z,14.87
2022-07-25T10:59:42.246Z,14.37
2022-07-25T11:02:18.488Z,13.87
2022-07-25T11:04:59.961Z,13.59
2022-07-25T11:07:28.968Z,13.84
2022-07-25T11:09:58.722Z,12.86
2022-07-25T11:12:26.956Z,12.74
2022-07-25T11:15:04.185Z,12.84
2022-07-25T11:17:32.630Z,12.73
2022-07-25T11:20:07.274Z,11.87
2022-07-25T11:22:35.801Z,11.84
2022-07-25T11:25:11.818Z,12.25
2022-07-25T11:27:40.177Z,12.19
2022-07-25T11:30:18.364Z,11.93
2022-07-25T11:32:49.921Z,11.90
2022-07-25T11:35:26.208Z,12.25
2022-07-25T11:37:55.459Z,12.53
2022-07-25T11:40:24.265Z,12.38
2022-07-25T11:42:54.572Z,12.26
2022-07-25T11:45:25.521Z,12.60
2022-07-25T11:48:07.623Z,12.52
2022-07-25T11:50:38.867Z,12.50
2022-07-25T11:53:09.628Z,12.31
2022-07-25T11:55:40.989Z,12.21
2022-07-25T11:58:10.415Z,11.85
2022-07-25T12:00:46.957Z,11.95
2022-07-25T12:03:20.196Z,11.77
2022-07-25T12:05:49.886Z,11.67
2022-07-25T12:08:20.289Z,11.55
2022-07-25T12:10:55.034Z,11.55
2022-07-25T12:13:30.858Z,11.28
2022-07-25T12:16:00.197Z,10.90
2022-07-25T12:18:28.461Z,11.37
2022-07-25T12:20:56.561Z,11.22
2022-07-25T12:23:24.678Z,10.88
2022-07-25T12:25:52.865Z,11.00
2022-07-25T12:28:20.948Z,11.29
2022-07-25T12:30:55.910Z,11.06
2022-07-25T12:33:24.809Z,11.18
2022-07-25T12:35:52.944Z,11.02
2022-07-25T12:38:21.036Z,11.48
2022-07-25T12:40:49.708Z,11.49
2022-07-25T12:43:17.728Z,11.27
2022-07-25T12:45:46.035Z,11.54
2022-07-25T12:48:15.468Z,11.41
2022-07-25T12:50:44.471Z,11.27
2022-07-25T12:53:13.801Z,10.84
2022-07-25T12:55:42.259Z,11.00
2022-07-25T12:58:10.331Z,11.52
2022-07-25T13:00:38.677Z,11.82
2022-07-25T13:03:06.973Z,12.27
2022-07-25T13:05:35.074Z,11.96
2022-07-25T13:08:06.641Z,12.02
2022-07-25T13:10:34.627Z,12.20
2022-07-25T13:13:02.691Z,12.20
2022-07-25T13:15:31.010Z,12.36
2022-07-25T13:17:58.990Z,12.52
2022-07-25T13:20:27.049Z,12.71
2022-07-25T13:22:55.246Z,12.85
2022-07-25T13:25:23.456Z,13.21
2022-07-25T13:27:51.448Z,13.61
2022-07-25T13:30:19.762Z,13.61
2022-07-25T13:32:47.822Z,13.69
2022-07-25T13:35:20.286Z,13.77
2022-07-25T13:37:48.838Z,13.84
2022-07-25T13:40:16.926Z,13.93
2022-07-25T13:42:44.844Z,13.97
2022-07-25T13:45:12.908Z,14.09
2022-07-25T13:47:40.957Z,13.95
2022-07-25T13:50:09.445Z,13.64
2022-07-25T13:52:37.893Z,13.39
2022-07-25T13:55:06.542Z,13.41
2022-07-25T13:57:34.747Z,13.30
2022-07-25T14:00:03.573Z,13.18
2022-07-25T14:02:33.058Z,13.20
2022-07-25T14:05:04.226Z,13.46
2022-07-25T14:07:34.025Z,13.46
2022-07-25T14:10:02.353Z,13.56
2022-07-25T14:12:30.458Z,13.66
2022-07-25T14:14:58.472Z,13.58
2022-07-25T14:17:30.343Z,13.49
2022-07-25T14:19:58.938Z,13.60
2022-07-25T14:22:27.243Z,13.31
2022-07-25T14:24:55.258Z,13.00
2022-07-25T14:27:23.774Z,12.96
2022-07-25T14:29:51.718Z,13.05
2022-07-25T14:32:20.027Z,12.94
2022-07-25T14:34:48.112Z,13.04
2022-07-25T14:37:16.265Z,13.25
2022-07-25T14:39:44.315Z,13.35
2022-07-25T14:42:13.333Z,13.35
2022-07-25T14:44:41.345Z,13.56
2022-07-25T14:47:12.443Z,13.64
2022-07-25T14:49:41.185Z,13.79
2022-07-25T14:52:10.226Z,13.57
2022-07-25T14:54:39.970Z,13.91
2022-07-25T14:57:09.773Z,14.22
2022-07-25T14:59:37.898Z,14.19
2022-07-25T15:02:05.861Z,14.44
2022-07-25T15:04:33.915Z,14.52
2022-07-25T15:07:02.245Z,14.80
2022-07-25T15:09:30.232Z,14.75
2022-07-25T15:11:58.488Z,14.69
2022-07-25T15:14:26.651Z,14.89
2022-07-25T15:16:54.808Z,15.08
2022-07-25T15:19:22.937Z,15.13
2022-07-25T15:21:51.331Z,14.97
2022-07-25T15:24:19.347Z,15.04
2022-07-25T15:26:47.436Z,15.20
2022-07-25T15:29:20.519Z,15.35
2022-07-25T15:31:49.423Z,15.40
2022-07-25T15:34:22.115Z,15.37
2022-07-25T15:36:50.473Z,15.43
2022-07-25T15:39:19.691Z,15.47
2022-07-25T15:41:47.987Z,15.62
2022-07-25T15:44:16.212Z,15.91
2022-07-25T15:46:45.119Z,16.08
2022-07-25T15:49:15.478Z,15.95
2022-07-25T15:51:43.619Z,15.96
2022-07-25T15:54:11.714Z,15.96
2022-07-25T15:56:39.865Z,16.05
2022-07-25T15:59:08.344Z,16.05
2022-07-25T16:01:36.882Z,15.58
2022-07-25T16:04:05.297Z,15.71
2022-07-25T16:06:33.322Z,15.55
2022-07-25T16:09:01.560Z,15.76
2022-07-25T16:11:29.681Z,15.70
2022-07-25T16:13:57.694Z,15.82
2022-07-25T16:16:25.779Z,15.63
2022-07-25T16:18:53.902Z,15.84
2022-07-25T16:21:22.031Z,15.73
2022-07-25T16:23:50.062Z,15.85
2022-07-25T16:26:18.219Z,16.14
2022-07-25T16:28:47.992Z,16.49
2022-07-25T16:31:16.110Z,16.63
2022-07-25T16:33:44.318Z,16.59
2022-07-25T16:36:13.215Z,16.64
2022-07-25T16:38:41.342Z,16.81
2022-07-25T16:41:09.339Z,16.71
2022-07-25T16:43:37.385Z,16.67
2022-07-25T16:46:07.689Z,17.06
2022-07-25T16:48:37.269Z,17.49
2022-07-25T16:51:05.510Z,17.87
2022-07-25T16:53:33.484Z,18.31
2022-07-25T16:56:01.699Z,18.54
2022-07-25T16:58:30.058Z,18.60
2022-07-25T17:00:58.125Z,18.80
2022-07-25T17:03:26.154Z,19.01
2022-07-25T17:05:54.728Z,19.24
2022-07-25T17:08:24.454Z,19.44
2022-07-25T17:10:52.522Z,19.68
2022-07-25T17:13:21.025Z,19.89
2022-07-25T17:15:49.245Z,20.13
2022-07-25T17:18:17.467Z,20.27
2022-07-25T17:20:45.455Z,20.51
2022-07-25T17:23:13.669Z,20.63
2022-07-25T17:25:44.322Z,20.83
2022-07-25T17:28:15.817Z,21.02
2022-07-25T17:30:44.087Z,21.33
2022-07-25T17:33:12.306Z,21.40
2022-07-25T17:35:40.551Z,21.47
2022-07-25T17:38:11.026Z,21.81
2022-07-25T17:40:42.402Z,22.16
2022-07-25T17:43:10.474Z,22.37
2022-07-25T17:45:38.686Z,22.66
2022-07-25T17:48:06.794Z,23.09
2022-07-25T17:50:34.820Z,23.29
2022-07-25T17:53:02.857Z,23.51
2022-07-25T17:55:34.216Z,23.82
2022-07-25T17:58:06.487Z,24.06
2022-07-25T18:00:34.573Z,24.29
2022-07-25T18:03:02.766Z,24.60
2022-07-25T18:05:30.982Z,24.91
2022-07-25T18:07:59.260Z,25.43
2022-07-25T18:10:27.620Z,25.59
2022-07-25T18:12:55.801Z,26.00
2022-07-25T18:15:23.878Z,26.31
2022-07-25T18:17:52.992Z,26.80
2022-07-25T18:20:21.251Z,27.11
2022-07-25T18:22:49.349Z,27.62
2022-07-25T18:25:17.486Z,27.78
2022-07-25T18:27:47.472Z,27.97
2022-07-25T18:30:16.976Z,28.09
2022-07-25T18:32:46.026Z,28.14
2022-07-25T18:35:14.332Z,28.28
2022-07-25T18:37:43.948Z,28.48
2022-07-25T18:40:13.058Z,28.47
2022-07-25T18:42:41.144Z,28.61
2022-07-25T18:45:10.104Z,28.70
2022-07-25T18:47:38.858Z,28.77
2022-07-25T18:50:07.431Z,28.76
2022-07-25T18:52:36.243Z,29.07
2022-07-25T18:55:09.324Z,29.16
2022-07-25T18:57:38.373Z,29.36
2022-07-25T19:00:08.650Z,29.36
2022-07-25T19:02:37.076Z,29.38
2022-07-25T19:05:05.520Z,30.33
2022-07-25T19:07:35.227Z,30.57
2022-07-25T19:10:04.027Z,31.00
2022-07-25T19:12:32.565Z,30.90
2022-07-25T19:15:00.517Z,30.93
2022-07-25T19:17:28.746Z,31.05
2022-07-25T19:19:56.819Z,31.01
2022-07-25T19:22:24.830Z,31.19
2022-07-25T19:24:52.861Z,31.44
2022-07-25T19:27:23.945Z,31.91
2022-07-25T19:29:52.099Z,31.90
2022-07-25T19:32:20.179Z,32.15
2022-07-25T19:34:48.462Z,32.62
2022-07-25T19:37:16.486Z,32.88
2022-07-25T19:39:47.761Z,32.92
2022-07-25T19:42:16.057Z,33.22
2022-07-25T19:44:44.191Z,33.59
2022-07-25T19:47:12.681Z,33.70
2022-07-25T19:49:41.346Z,34.22
2022-07-25T19:52:10.505Z,34.41
2022-07-25T19:54:39.213Z,34.53
2022-07-25T19:57:09.908Z,34.97
2022-07-25T19:59:38.237Z,35.23
2022-07-25T20:02:06.404Z,35.21
2022-07-25T20:04:34.513Z,35.31
2022-07-25T20:07:03.210Z,35.63
2022-07-25T20:09:31.340Z,35.39
2022-07-25T20:11:59.537Z,35.60
2022-07-25T20:14:27.582Z,35.96
2022-07-25T20:16:56.005Z,36.27
2022-07-25T20:19:24.374Z,36.33
2022-07-25T20:21:52.798Z,37.04
2022-07-25T20:24:21.705Z,37.01
2022-07-25T20:26:50.143Z,37.37
2022-07-25T20:29:18.437Z,37.56
2022-07-25T20:31:46.698Z,37.65
2022-07-25T20:34:15.616Z,37.53
2022-07-25T20:36:43.755Z,37.78
2022-07-25T20:39:11.787Z,38.19
2022-07-25T20:41:41.255Z,38.41
2022-07-25T20:44:12.822Z,38.40
2022-07-25T20:46:40.930Z,38.56
2022-07-25T20:49:09.890Z,38.67
2022-07-25T20:51:42.163Z,38.85
2022-07-25T20:54:10.300Z,39.22
2022-07-25T20:56:38.590Z,39.50
2022-07-25T20:59:07.197Z,39.57
2022-07-25T21:01:36.677Z,39.60
2022-07-25T21:04:07.688Z,39.88
2022-07-25T21:06:36.797Z,40.05
2022-07-25T21:09:06.054Z,40.26
2022-07-25T21:11:37.468Z,40.49
2022-07-25T21:14:06.047Z,40.78
2022-07-25T21:16:34.384Z,41.00
2022-07-25T21:19:02.581Z,41.05
2022-07-25T21:21:31.081Z,40.95
2022-07-25T21:23:59.308Z,41.25
2022-07-25T21:26:27.514Z,41.73
2022-07-25T21:28:58.073Z,41.55
2022-07-25T21:31:26.220Z,41.84
2022-07-25T21:33:54.194Z,41.99
2022-07-25T21:36:22.217Z,41.91
2022-07-25T21:38:50.361Z,42.23
2022-07-25T21:41:18.622Z,42.42
2022-07-25T21:43:47.524Z,42.41
2022-07-25T21:46:15.614Z,42.74
2022-07-25T21:49:02.509Z,43.25
2022-07-25T21:51:40.290Z,43.44
2022-07-25T21:54:09.315Z,43.72
2022-07-25T21:56:37.450Z,43.90
2022-07-25T21:59:06.895Z,44.39
2022-07-25T22:01:35.742Z,44.27
2022-07-25T22:04:05.412Z,44.43
2022-07-25T22:06:33.647Z,44.65
2022-07-25T22:09:01.913Z,44.83
2022-07-25T22:11:42.460Z,44.70
2022-07-25T22:14:15.801Z,44.95
2022-07-25T22:16:44.005Z,44.96
2022-07-25T22:19:12.366Z,44.98
2022-07-25T22:21:41.298Z,45.15
2022-07-25T22:24:10.442Z,45.26
2022-07-25T22:26:38.636Z,45.37
2022-07-25T22:29:07.114Z,45.56
2022-07-25T22:31:35.620Z,45.74
2022-07-25T22:34:04.259Z,45.80
2022-07-25T22:36:32.303Z,46.04
2022-07-25T22:39:00.346Z,45.98
2022-07-25T22:41:28.297Z,46.25
2022-07-25T22:43:58.808Z,46.81
2022-07-25T22:46:31.097Z,47.00
2022-07-25T22:48:59.526Z,47.37
2022-07-25T22:51:29.196Z,47.47
2022-07-25T22:53:58.638Z,47.44
2022-07-25T22:56:27.526Z,47.53
2022-07-25T22:58:55.864Z,47.43
2022-07-25T23:01:25.609Z,47.54
2022-07-25T23:03:53.825Z,47.71
2022-07-25T23:06:22.304Z,47.76
2022-07-25T23:08:51.060Z,47.80
2022-07-25T23:11:19.822Z,48.01
2022-07-25T23:13:47.926Z,48.02
2022-07-25T23:16:16.394Z,48.20
2022-07-25T23:18:44.740Z,48.36
2022-07-25T23:21:12.931Z,48.37
2022-07-25T23:23:41.018Z,48.46
2022-07-25T23:26:09.219Z,48.49
2022-07-25T23:28:37.462Z,49.14
2022-07-25T23:31:05.618Z,49.07
2022-07-25T23:33:33.692Z,48.83
2022-07-25T23:36:02.622Z,48.58
2022-07-25T23:38:30.778Z,48.96
2022-07-25T23:40:58.869Z,49.22
2022-07-25T23:43:55.673Z,49.32
2022-07-25T23:46:15.664Z,49.48
2022-07-25T23:48:46.472Z,49.75
2022-07-25T23:51:16.744Z,49.73
2022-07-25T23:53:44.718Z,49.53
2022-07-25T23:56:16.162Z,49.75
2022-07-25T23:58:50.293Z,49.91
